Time;durP1;ratioP1;P1;durP2;ratioP2;P2;SDS_P1;SDS_P2;PMS_P1;PMS_P2;Temp;Humidity;BMP_temperature;BMP_pressure;BME280_temperature;BME280_humidity;BME280_pressure;Samples;Min_cycle;Max_cycle;Signal;HPM_P1;HPM_P2
2021/04/15 00:00:42;;;;;;;18.55;9.52;;;0.20;99.90;;;;;;5042821;28;20033;-61
2021/04/15 00:03:11;;;;;;;19.67;10.20;;;0.20;99.90;;;;;;5041371;28;20048;-60
2021/04/15 00:05:39;;;;;;;16.70;9.88;;;0.20;99.90;;;;;;5023730;28;20046;-59
2021/04/15 00:08:07;;;;;;;18.17;9.98;;;0.20;99.90;;;;;;5022846;28;20042;-59
2021/04/15 00:10:40;;;;;;;22.58;11.35;;;0.10;99.90;;;;;;5022077;28;20124;-57
2021/04/15 00:13:19;;;;;;;19.38;11.18;;;0.10;99.90;;;;;;5022785;28;20116;-59
2021/04/15 00:15:45;;;;;;;19.48;10.82;;;0.10;99.90;;;;;;5015523;28;20033;-61
2021/04/15 00:18:11;;;;;;;16.23;10.45;;;0.10;99.90;;;;;;5029640;28;20037;-60
2021/04/15 00:20:37;;;;;;;17.70;9.95;;;0.10;99.90;;;;;;5029107;28;20512;-59
2021/04/15 00:23:03;;;;;;;16.33;10.40;;;0.20;99.90;;;;;;5029920;28;20079;-62
2021/04/15 00:25:28;;;;;;;22.10;12.20;;;0.20;99.90;;;;;;5049513;28;20205;-60
2021/04/15 00:27:54;;;;;;;21.15;10.90;;;0.20;99.90;;;;;;5049063;28;20033;-57
2021/04/15 00:30:21;;;;;;;15.90;9.98;;;0.20;99.90;;;;;;5049029;28;20577;-59
2021/04/15 00:32:47;;;;;;;17.23;10.38;;;0.30;99.90;;;;;;5048695;28;20429;-62
2021/04/15 00:35:13;;;;;;;25.52;12.02;;;0.30;99.90;;;;;;5048993;28;20792;-62
2021/04/15 00:37:39;;;;;;;20.55;12.43;;;0.40;99.90;;;;;;5045181;28;20099;-61
2021/04/15 00:40:07;;;;;;;26.05;13.13;;;0.50;99.90;;;;;;5040702;28;20531;-61
2021/04/15 00:42:32;;;;;;;28.63;13.77;;;0.50;99.90;;;;;;5028571;28;20037;-61
2021/04/15 00:45:08;;;;;;;21.23;12.68;;;0.60;99.90;;;;;;5028567;28;20040;-61
2021/04/15 00:47:33;;;;;;;23.87;13.30;;;0.60;99.90;;;;;;5029147;28;20045;-62
2021/04/15 00:50:13;;;;;;;21.25;13.20;;;0.60;99.90;;;;;;5028869;28;20700;-58
2021/04/15 00:52:47;;;;;;;20.63;12.90;;;0.70;99.90;;;;;;5038581;28;20060;-60
2021/04/15 00:55:17;;;;;;;23.63;12.52;;;0.70;99.90;;;;;;5048565;28;20048;-60
2021/04/15 00:57:48;;;;;;;21.42;12.75;;;0.70;99.90;;;;;;5048416;28;20063;-59
2021/04/15 01:00:15;;;;;;;24.05;13.05;;;0.70;99.90;;;;;;5047198;28;20139;-61
2021/04/15 01:02:41;;;;;;;24.65;13.18;;;0.80;99.90;;;;;;5046976;28;20048;-61
2021/04/15 01:05:16;;;;;;;19.67;12.70;;;0.80;99.90;;;;;;5029821;28;20041;-58
2021/04/15 01:07:42;;;;;;;20.60;12.38;;;0.90;99.90;;;;;;5028237;28;20041;-58
2021/04/15 01:10:08;;;;;;;18.70;11.00;;;0.90;99.90;;;;;;5028197;28;20091;-60
2021/04/15 01:12:53;;;;;;;19.45;11.55;;;0.90;99.90;;;;;;5028291;28;20057;-59
2021/04/15 01:15:39;;;;;;;17.20;10.93;;;1.00;99.90;;;;;;5052642;28;20119;-58
2021/04/15 01:18:24;;;;;;;19.38;10.77;;;1.00;99.90;;;;;;5064402;28;20588;-59
2021/04/15 01:20:55;;;;;;;21.02;10.13;;;1.00;99.90;;;;;;5063481;28;20049;-55
2021/04/15 01:23:29;;;;;;;16.45;10.02;;;1.00;99.90;;;;;;5056189;28;20128;-59
2021/04/15 01:25:54;;;;;;;21.50;10.10;;;1.00;99.90;;;;;;5045845;28;20137;-59
2021/04/15 01:28:50;;;;;;;20.55;9.90;;;1.00;99.90;;;;;;5044012;28;20116;-53
2021/04/15 01:31:22;;;;;;;18.00;10.38;;;1.00;99.90;;;;;;5052196;28;20033;-54
2021/04/15 01:33:57;;;;;;;18.95;10.93;;;1.00;99.90;;;;;;5061387;28;20059;-60
2021/04/15 01:36:33;;;;;;;14.35;9.15;;;1.00;99.90;;;;;;5068852;28;20048;-58
2021/04/15 01:39:07;;;;;;;19.40;11.30;;;1.10;99.90;;;;;;5066555;28;20120;-57
2021/04/15 01:41:41;;;;;;;15.80;9.23;;;1.10;99.90;;;;;;5067153;28;20087;-58
2021/04/15 01:44:09;;;;;;;18.60;10.25;;;1.00;99.90;;;;;;5068079;28;20041;-57
2021/04/15 01:46:37;;;;;;;20.10;11.20;;;1.10;99.90;;;;;;5067448;28;20044;-54
2021/04/15 01:49:05;;;;;;;18.60;10.50;;;1.10;99.90;;;;;;5061366;28;20047;-55
2021/04/15 01:51:51;;;;;;;19.70;10.93;;;1.00;99.90;;;;;;5058072;28;20045;-57
2021/04/15 01:54:30;;;;;;;20.85;9.90;;;1.10;99.90;;;;;;5048400;28;20037;-56
2021/04/15 01:57:17;;;;;;;18.38;11.00;;;1.10;99.90;;;;;;5061574;28;20492;-55
2021/04/15 02:00:06;;;;;;;25.05;11.77;;;1.10;99.90;;;;;;5067137;28;20037;-59
2021/04/15 02:02:40;;;;;;;18.58;11.25;;;1.10;99.90;;;;;;5066158;28;20048;-54
2021/04/15 02:05:13;;;;;;;22.95;10.27;;;1.10;99.90;;;;;;5042374;28;20040;-54
2021/04/15 02:07:44;;;;;;;19.17;10.80;;;1.10;99.90;;;;;;5027359;28;20045;-59
2021/04/15 02:10:13;;;;;;;23.70;11.82;;;1.10;99.90;;;;;;5026694;28;20054;-57
2021/04/15 02:12:42;;;;;;;21.08;10.98;;;1.10;99.90;;;;;;5027621;28;20052;-57
2021/04/15 02:15:30;;;;;;;20.13;10.68;;;1.00;99.90;;;;;;5026801;28;20045;-56
2021/04/15 02:18:02;;;;;;;18.33;10.45;;;1.00;99.90;;;;;;5027066;28;20195;-57
2021/04/15 02:20:29;;;;;;;17.95;9.82;;;1.00;99.90;;;;;;5027133;28;20485;-57
2021/04/15 02:23:15;;;;;;;17.90;10.90;;;1.00;99.90;;;;;;5025987;28;20513;-57
2021/04/15 02:25:41;;;;;;;18.40;11.93;;;1.10;99.90;;;;;;5039728;28;20036;-59
2021/04/15 02:28:15;;;;;;;27.02;11.95;;;1.10;99.90;;;;;;5047187;28;20099;-55
2021/04/15 02:31:07;;;;;;;22.52;12.00;;;1.00;99.90;;;;;;5046499;28;20045;-59
2021/04/15 02:34:01;;;;;;;19.67;10.23;;;1.00;99.90;;;;;;5043107;28;20152;-54
2021/04/15 02:36:35;;;;;;;20.38;11.38;;;0.90;99.90;;;;;;5046545;28;20511;-54
2021/04/15 02:39:21;;;;;;;21.63;13.10;;;0.90;99.90;;;;;;5046550;28;20437;-56
2021/04/15 02:41:50;;;;;;;21.33;12.02;;;1.00;99.90;;;;;;5046375;28;20037;-57
2021/04/15 02:44:25;;;;;;;18.90;10.70;;;1.00;99.90;;;;;;5042032;28;20053;-55
2021/04/15 02:47:07;;;;;;;26.98;11.75;;;1.00;99.90;;;;;;5032203;28;20063;-52
2021/04/15 02:49:33;;;;;;;17.67;10.68;;;1.00;99.90;;;;;;5046366;28;20098;-56
2021/04/15 02:52:11;;;;;;;18.13;10.60;;;1.00;99.90;;;;;;5045749;28;20090;-57
2021/04/15 02:54:40;;;;;;;17.75;10.00;;;1.00;99.90;;;;;;5046958;28;20040;-57
2021/04/15 02:57:14;;;;;;;18.08;11.02;;;1.00;99.90;;;;;;5046641;28;20052;-55
2021/04/15 03:00:05;;;;;;;19.38;10.23;;;1.00;99.90;;;;;;5046011;28;20051;-58
2021/04/15 03:02:35;;;;;;;22.05;11.10;;;1.10;99.90;;;;;;5045711;28;20047;-53
2021/04/15 03:05:10;;;;;;;23.77;10.07;;;1.00;99.90;;;;;;5030135;28;20517;-60
2021/04/15 03:07:39;;;;;;;19.27;10.75;;;1.00;99.90;;;;;;5027166;28;20111;-59
2021/04/15 03:10:09;;;;;;;17.13;10.73;;;1.10;99.90;;;;;;5027125;28;20116;-60
2021/04/15 03:12:39;;;;;;;19.83;11.43;;;1.10;99.90;;;;;;5026366;28;20049;-57
2021/04/15 03:15:12;;;;;;;20.92;10.70;;;1.10;99.90;;;;;;5027069;28;20072;-56
2021/04/15 03:17:42;;;;;;;18.23;10.90;;;1.20;99.90;;;;;;5027249;28;20437;-59
2021/04/15 03:20:16;;;;;;;17.25;10.15;;;1.20;99.90;;;;;;5027231;28;20405;-58
2021/04/15 03:22:55;;;;;;;19.83;10.68;;;1.20;99.90;;;;;;5025916;28;20050;-57
2021/04/15 03:25:21;;;;;;;20.23;11.18;;;1.20;99.90;;;;;;5044558;28;20091;-53
2021/04/15 03:27:56;;;;;;;21.83;10.38;;;1.20;99.90;;;;;;5046849;28;20049;-59
2021/04/15 03:30:59;;;;;;;24.52;10.82;;;1.20;99.90;;;;;;5045506;28;20052;-57
2021/04/15 03:33:40;;;;;;;21.10;11.13;;;1.20;99.90;;;;;;5039261;28;20077;-59
2021/04/15 03:36:33;;;;;;;22.65;9.00;;;1.20;99.90;;;;;;5045922;28;20040;-60
2021/04/15 03:39:05;;;;;;;15.98;9.05;;;1.20;99.90;;;;;;5041284;28;20417;-54
2021/04/15 03:41:39;;;;;;;15.52;9.40;;;1.20;99.90;;;;;;5046013;28;20041;-55
2021/04/15 03:44:09;;;;;;;17.52;9.65;;;1.10;99.90;;;;;;5046627;28;20584;-57
2021/04/15 03:46:44;;;;;;;19.88;10.05;;;1.10;99.90;;;;;;5046118;28;20041;-57
2021/04/15 03:49:24;;;;;;;19.98;10.90;;;1.20;99.90;;;;;;5047121;28;20057;-57
2021/04/15 03:51:58;;;;;;;21.40;10.70;;;1.20;99.90;;;;;;5046781;28;20072;-54
2021/04/15 03:54:29;;;;;;;20.17;9.63;;;1.20;99.90;;;;;;5042543;28;20095;-57
2021/04/15 03:57:00;;;;;;;22.83;9.98;;;1.20;99.90;;;;;;5050094;28;20044;-55
2021/04/15 03:59:50;;;;;;;16.73;9.52;;;1.10;99.90;;;;;;5049610;28;20205;-52
2021/04/15 04:02:33;;;;;;;16.65;9.32;;;1.10;99.90;;;;;;5049130;28;20681;-56
2021/04/15 04:05:08;;;;;;;22.75;10.27;;;1.10;99.90;;;;;;5033402;28;20038;-55
2021/04/15 04:07:40;;;;;;;20.20;10.38;;;1.00;99.90;;;;;;5029614;28;20044;-58
2021/04/15 04:10:12;;;;;;;20.17;10.52;;;1.00;99.90;;;;;;5029504;28;20056;-53
2021/04/15 04:12:47;;;;;;;19.73;9.63;;;1.10;99.90;;;;;;5029158;28;20049;-53
2021/04/15 04:15:21;;;;;;;17.25;9.88;;;1.00;99.90;;;;;;5029248;28;20531;-56
2021/04/15 04:18:06;;;;;;;19.63;10.80;;;1.00;99.90;;;;;;5030417;28;20053;-57
2021/04/15 04:20:35;;;;;;;19.60;11.05;;;1.00;99.90;;;;;;5029392;28;20197;-58
2021/04/15 04:23:24;;;;;;;19.83;10.15;;;0.90;99.90;;;;;;5029223;28;20077;-56
2021/04/15 04:25:59;;;;;;;23.95;10.30;;;0.90;99.90;;;;;;5043651;28;20489;-59
2021/04/15 04:28:31;;;;;;;20.95;11.10;;;0.90;99.90;;;;;;5053800;28;20424;-56
2021/04/15 04:31:18;;;;;;;18.63;10.45;;;0.70;99.90;;;;;;5045397;28;20118;-57
2021/04/15 04:33:47;;;;;;;21.83;11.18;;;0.60;99.90;;;;;;5029593;28;20551;-56
2021/04/15 04:36:14;;;;;;;19.98;10.85;;;0.50;99.90;;;;;;5028378;28;20045;-56
2021/04/15 04:38:41;;;;;;;19.23;10.63;;;0.40;99.90;;;;;;5028923;28;20095;-54
2021/04/15 04:41:12;;;;;;;23.77;11.13;;;;;;;;;;5032525;28;20112;-56
2021/04/15 04:43:46;;;;;;;23.08;11.05;;;;;;;;;;5048556;28;20564;-58
2021/04/15 04:46:23;;;;;;;17.00;10.02;;;;;;;;;;5048431;28;20033;-58
2021/04/15 04:48:54;;;;;;;23.50;10.85;;;;;;;;;;5047583;28;20045;-58
2021/04/15 04:54:25;;;;;;;21.63;10.43;;;;;;;;;;5025919;28;20131;-59
2021/04/15 04:57:00;;;;;;;15.70;9.40;;;;;;;;;;5033616;28;20041;-56
2021/04/15 04:59:36;;;;;;;22.50;9.90;;;;;;;;;;5048000;28;20041;-56
2021/04/15 05:02:03;;;;;;;15.20;9.55;;;;;;;;;;5046964;28;20045;-52
2021/04/15 05:04:32;;;;;;;12.65;8.15;;;;;;;;;;5047400;28;20056;-59
2021/04/15 05:07:03;;;;;;;18.25;8.27;;;;;;;;;;5048051;28;20033;-56
2021/04/15 05:09:40;;;;;;;15.18;8.35;;;;;;;;;;5046888;28;20652;-57
2021/04/15 05:12:10;;;;;;;12.68;7.90;;;;;;;;;;5046815;28;20114;-55
2021/04/15 05:14:37;;;;;;;13.30;8.18;;;;;;;;;;5046577;28;20052;-53
2021/04/15 05:17:05;;;;;;;14.85;8.75;;;;;;;;;;5047410;28;20037;-57
2021/04/15 05:19:33;;;;;;;11.25;7.65;;;;;;;;;;5047324;28;20045;-54
2021/04/15 05:22:00;;;;;;;12.90;8.35;;;;;;;;;;5047224;28;20594;-56
2021/04/15 05:24:28;;;;;;;15.27;7.40;;;;;;;;;;5047614;28;20107;-57
2021/04/15 05:26:57;;;;;;;16.35;8.23;;;;;;;;;;5047867;28;20059;-59
2021/04/15 05:29:28;;;;;;;10.38;6.82;;;;;;;;;;5048270;28;20041;-60
2021/04/15 05:31:55;;;;;;;14.88;7.15;;;;;;;;;;5047850;28;20090;-59
2021/04/15 05:34:33;;;;;;;13.15;7.18;;;;;;;;;;5047387;28;20528;-60
2021/04/15 05:37:01;;;;;;;13.23;7.15;;;;;;;;;;5046520;28;20091;-56
2021/04/15 05:39:30;;;;;;;12.57;7.30;;;;;;;;;;5029913;22;20037;-71
2021/04/15 05:42:09;;;;;;;14.20;7.82;;;;;;;;;;5050390;28;20086;-72
2021/04/15 05:44:38;;;;;;;12.30;7.93;;;;;;;;;;5051837;28;20532;-72
2021/04/15 05:47:06;;;;;;;12.48;7.82;;;;;;;;;;5050446;28;20037;-72
2021/04/15 05:49:36;;;;;;;16.15;9.27;;;;;;;;;;5051904;28;20071;-72
2021/04/15 05:52:05;;;;;;;13.60;7.65;;;;;;;;;;5056832;28;20438;-70
2021/04/15 05:54:32;;;;;;;16.92;8.40;;;;;;;;;;5052633;28;20542;-72
2021/04/15 05:57:02;;;;;;;12.73;7.57;;;;;;;;;;5051531;28;20044;-70
2021/04/15 05:59:47;;;;;;;11.70;7.68;;;;;;;;;;5051212;28;20040;-72
2021/04/15 06:02:25;;;;;;;11.93;7.75;;;;;;;;;;5050934;28;20036;-72
2021/04/15 06:05:00;;;;;;;14.73;8.15;;;;;;;;;;5059756;28;20051;-71
2021/04/15 06:07:26;;;;;;;15.52;8.50;;;;;;;;;;5069558;28;20149;-70
2021/04/15 06:09:53;;;;;;;17.27;8.77;;;;;;;;;;5051808;28;20047;-72
2021/04/15 06:12:23;;;;;;;17.48;8.57;;;;;;;;;;5050877;28;20045;-72
2021/04/15 06:14:53;;;;;;;22.60;12.48;;;;;;;;;;5051559;28;20036;-71
2021/04/15 06:17:33;;;;;;;25.23;14.75;;;;;;;;;;5050828;28;20179;-70
2021/04/15 06:20:02;;;;;;;31.52;17.05;;;;;;;;;;5031342;28;20040;-72
2021/04/15 06:22:30;;;;;;;31.60;16.95;;;;;;;;;;5031467;28;20401;-71
2021/04/15 06:25:02;;;;;;;32.97;17.80;;;;;;;;;;5032386;28;20041;-72
2021/04/15 06:27:29;;;;;;;25.13;13.10;;;;;;;;;;5048228;28;20043;-71
2021/04/15 06:29:56;;;;;;;19.80;11.88;;;;;;;;;;5032011;28;20041;-72
2021/04/15 06:32:31;;;;;;;19.83;12.95;;;;;;;;;;5026756;28;20044;-71
2021/04/15 06:34:58;;;;;;;12.55;8.27;;;;;;;;;;5048325;28;20118;-70
2021/04/15 06:37:40;;;;;;;14.82;7.45;;;;;;;;;;5032719;28;20037;-69
2021/04/15 06:40:26;;;;;;;8.93;5.85;;;;;;;;;;5048684;28;20536;-72
2021/04/15 06:43:11;;;;;;;14.50;7.45;;;;;;;;;;5030965;28;20053;-69
2021/04/15 06:45:52;;;;;;;20.48;12.10;;;;;;;;;;5048330;28;20142;-72
2021/04/15 06:48:34;;;;;;;17.83;9.05;;;;;;;;;;5048073;28;20050;-71
2021/04/15 06:51:06;;;;;;;13.52;6.97;;;;;;;;;;5047609;28;20569;-72
2021/04/15 06:53:39;;;;;;;12.07;5.97;;;;;;;;;;5025311;28;20470;-70
2021/04/15 06:56:44;;;;;;;14.45;6.63;;;;;;;;;;5030835;28;20040;-70
2021/04/15 06:59:29;;;;;;;18.58;6.53;;;;;;;;;;4971310;28;20093;-74
2021/04/15 07:02:10;;;;;;;11.20;6.53;;;;;;;;;;4985464;28;20050;-71
2021/04/15 07:04:54;;;;;;;18.70;6.97;;;;;;;;;;5018805;28;20048;-72
2021/04/15 07:07:26;;;;;;;21.25;7.97;;;;;;;;;;5030569;28;20037;-69
2021/04/15 07:10:15;;;;;;;18.00;7.05;;;;;;;;;;5048588;28;20124;-71
2021/04/15 07:13:00;;;;;;;19.08;6.50;;;;;;;;;;5030535;28;20094;-71
2021/04/15 07:15:26;;;;;;;10.65;6.05;;;;;;;;;;5030887;28;20490;-71
2021/04/15 07:17:59;;;;;;;14.68;6.53;;;;;;;;;;5049423;28;20041;-70
2021/04/15 07:20:38;;;;;;;16.05;7.30;;;;;;;;;;5030780;28;20071;-71
2021/04/15 07:23:24;;;;;;;16.35;6.97;;;;;;;;;;5030605;28;20084;-70
2021/04/15 07:26:09;;;;;;;16.25;7.13;;;;;;;;;;5024619;28;20120;-71
2021/04/15 07:28:36;;;;;;;15.65;6.50;;;;;;;;;;5050494;28;20044;-70
2021/04/15 07:31:20;;;;;;;14.73;6.78;;;;;;;;;;5051876;28;20037;-69
2021/04/15 07:33:52;;;;;;;13.38;6.28;;;;;;;;;;5051502;28;20045;-70
2021/04/15 07:36:38;;;;;;;13.32;6.90;;;;;;;;;;5051993;28;20044;-68
2021/04/15 07:39:19;;;;;;;15.68;6.60;;;;;;;;;;5051662;28;20515;-71
2021/04/15 07:41:56;;;;;;;15.32;7.75;;;;;;;;;;5051530;28;20076;-69
2021/04/15 07:44:28;;;;;;;16.90;7.57;;;;;;;;;;5036452;28;20168;-69
2021/04/15 07:47:12;;;;;;;11.48;6.25;;;;;;;;;;5052167;28;20061;-68
2021/04/15 07:49:51;;;;;;;9.23;5.45;;;;;;;;;;5034235;28;20456;-69
2021/04/15 07:52:19;;;;;;;9.55;4.50;;;;;;;;;;5035562;28;20037;-69
2021/04/15 07:55:09;;;;;;;8.50;5.03;;;;;;;;;;5031726;28;20037;-69
2021/04/15 07:57:44;;;;;;;10.30;3.60;;;;;;;;;;5031178;28;20034;-71
2021/04/15 08:00:24;;;;;;;8.85;3.55;;;;;;;;;;5031101;28;20072;-72
2021/04/15 08:02:56;;;;;;;8.23;3.30;;;;;;;;;;5051285;28;20047;-73
2021/04/15 08:05:39;;;;;;;7.43;3.67;;;;;;;;;;5053523;28;20055;-74
2021/04/15 08:08:14;;;;;;;7.65;3.83;;;;;;;;;;5066999;28;20170;-73
2021/04/15 08:10:46;;;;;;;9.30;3.70;;;;;;;;;;5053969;28;20036;-73
2021/04/15 08:13:27;;;;;;;9.40;3.38;;;;;;;;;;5053920;28;20062;-71
2021/04/15 08:15:56;;;;;;;10.38;3.72;;;;;;;;;;5053521;28;20037;-71
2021/04/15 08:18:42;;;;;;;14.80;4.30;;;;;;;;;;5054662;28;20048;-72
2021/04/15 08:21:11;;;;;;;9.93;4.18;;;;;;;;;;5062297;28;20043;-72
2021/04/15 08:23:44;;;;;;;5.53;3.63;;;;;;;;;;5061931;28;20043;-74
2021/04/15 08:26:19;;;;;;;12.77;4.28;;;;;;;;;;5053881;28;20466;-71
2021/04/15 08:29:11;;;;;;;7.95;4.35;;;;;;;;;;5072269;28;20119;-73
2021/04/15 08:31:47;;;;;;;8.05;4.07;;;;;;;;;;5045599;28;20033;-72
2021/04/15 08:34:13;;;;;;;8.63;5.55;;;;;;;;;;5071063;28;20064;-72
2021/04/15 08:36:59;;;;;;;12.73;5.47;;;;;;;;;;5067703;28;20560;-70
2021/04/15 08:39:44;;;;;;;10.57;5.72;;;;;;;;;;5055343;28;20122;-70
2021/04/15 08:42:29;;;;;;;11.95;6.28;;;;;;;;;;5053779;28;20051;-70
2021/04/15 08:44:55;;;;;;;14.05;7.03;;;;;;;;;;5053974;28;20156;-73
2021/04/15 08:47:27;;;;;;;16.20;8.18;;;;;;;;;;5053572;28;20043;-71
2021/04/15 08:50:09;;;;;;;16.63;7.82;;;;;;;;;;5053197;28;20381;-73
2021/04/15 08:52:40;;;;;;;15.75;8.05;;;;;;;;;;5062974;28;20051;-70
2021/04/15 08:55:32;;;;;;;15.15;8.93;;;;;;;;;;5069006;28;20097;-71
2021/04/15 08:58:17;;;;;;;17.58;9.25;;;;;;;;;;5033145;28;20090;-70
2021/04/15 09:00:46;;;;;;;18.25;9.18;;;;;;;;;;5050776;28;20037;-70
2021/04/15 09:03:20;;;;;;;17.40;9.98;;;;;;;;;;5034492;28;20128;-72
2021/04/15 09:05:55;;;;;;;22.77;11.05;;;;;;;;;;5070015;28;20040;-69
2021/04/15 09:08:43;;;;;;;23.92;11.20;;;;;;;;;;5070012;28;20040;-70
2021/04/15 09:11:27;;;;;;;28.80;13.02;;;;;;;;;;5029121;28;20053;-72
2021/04/15 09:14:00;;;;;;;19.90;10.82;;;;;;;;;;5069889;28;20047;-73
2021/04/15 09:16:34;;;;;;;22.30;11.48;;;;;;;;;;5069908;28;20047;-71
2021/04/15 09:19:04;;;;;;;16.77;10.02;;;;;;;;;;5069756;28;20048;-70
2021/04/15 09:21:48;;;;;;;15.70;8.13;;;;;;;;;;5070072;28;20122;-69
2021/04/15 09:24:42;;;;;;;18.75;8.93;;;;;;;;;;5069607;28;20052;-69
2021/04/15 09:27:09;;;;;;;24.00;9.88;;;;;;;;;;5058732;28;20116;-73
2021/04/15 09:29:47;;;;;;;16.77;8.93;;;;;;;;;;5055927;28;20086;-68
2021/04/15 09:32:19;;;;;;;18.20;12.40;;;;;;;;;;5044874;28;20033;-71
2021/04/15 09:35:04;;;;;;;19.60;9.75;;;;;;;;;;5069831;28;20049;-69
2021/04/15 09:37:51;;;;;;;21.73;11.27;;;;;;;;;;5053263;28;20190;-70
2021/04/15 09:40:20;;;;;;;22.13;9.68;;;;;;;;;;5069809;28;20064;-70
2021/04/15 09:42:46;;;;;;;21.15;10.13;;;;;;;;;;5051711;28;20116;-73
2021/04/15 09:45:24;;;;;;;20.38;9.20;;;;;;;;;;5052292;28;20182;-72
2021/04/15 09:47:59;;;;;;;20.30;10.48;;;;;;;;;;5069413;28;20482;-72
2021/04/15 09:50:30;;;;;;;19.63;10.65;;;;;;;;;;5067773;28;20076;-71
2021/04/15 09:53:08;;;;;;;19.88;9.63;;;;;;;;;;5067398;28;20572;-70
2021/04/15 09:55:40;;;;;;;19.90;7.60;;;;;;;;;;5044639;28;20028;-72
2021/04/15 09:58:25;;;;;;;15.43;7.00;;;;;;;;;;5055209;28;20064;-72
2021/04/15 10:00:52;;;;;;;13.27;6.22;;;;;;;;;;5046076;28;20068;-70
2021/04/15 10:03:20;;;;;;;15.75;7.07;;;;;;;;;;5053333;28;20097;-69
2021/04/15 10:06:15;;;;;;;16.50;6.93;;;;;;;;;;5070912;28;20082;-71
2021/04/15 10:08:58;;;;;;;15.65;7.47;;;;;;;;;;5052498;28;20032;-72
2021/04/15 10:11:38;;;;;;;10.00;6.20;;;;;;;;;;5052507;28;20044;-69
2021/04/15 10:14:13;;;;;;;10.75;4.95;;;;;;;;;;5053188;28;20043;-72
2021/04/15 10:17:00;;;;;;;17.27;6.63;;;;;;;;;;5050907;28;20078;-71
2021/04/15 10:19:36;;;;;;;10.25;4.65;;;;;;;;;;5051980;28;20524;-70
2021/04/15 10:22:13;;;;;;;23.02;5.90;;;;;;;;;;5052533;28;20473;-73
2021/04/15 10:25:03;;;;;;;14.95;7.88;;;;;;;;;;5051570;28;20075;-72
2021/04/15 10:27:38;;;;;;;10.25;5.20;;;;;;;;;;5051756;28;20128;-72
2021/04/15 10:30:23;;;;;;;13.13;7.30;;;;;;;;;;5067870;28;20056;-72
2021/04/15 10:32:59;;;;;;;17.05;6.53;;;;;;;;;;5064907;28;20044;-72
2021/04/15 10:35:44;;;;;;;9.50;5.88;;;;;;;;;;5066593;28;20036;-68
2021/04/15 10:38:35;;;;;;;13.82;6.55;;;;;;;;;;5066335;28;20075;-70
2021/04/15 10:41:41;;;;;;;16.65;6.47;;;;;;;;;;5069169;28;20048;-69
2021/04/15 10:44:07;;;;;;;12.75;6.38;;;;;;;;;;5065917;28;20135;-69
2021/04/15 10:46:52;;;;;;;12.20;7.00;;;;;;;;;;5048629;28;20044;-68
2021/04/15 10:49:34;;;;;;;15.27;7.05;;;;;;;;;;5032318;28;20033;-72
2021/04/15 10:52:06;;;;;;;16.50;6.75;;;;;;;;;;5048299;28;20039;-72
2021/04/15 10:54:35;;;;;;;15.65;5.88;;;;;;;;;;5048924;28;20044;-70
2021/04/15 10:57:13;;;;;;;12.02;4.68;;;;;;;;;;5052536;28;20048;-69
2021/04/15 10:59:40;;;;;;;6.53;3.95;;;;;;;;;;5029239;28;20116;-71
2021/04/15 11:02:25;;;;;;;6.30;3.35;;;;;;;;;;5027674;28;20044;-71
2021/04/15 11:04:55;;;;;;;14.25;4.32;;;;;;;;;;5028936;28;20135;-69
2021/04/15 11:07:24;;;;;;;6.63;3.70;;;;;;;;;;5047093;28;20040;-69
2021/04/15 11:09:51;;;;;;;5.93;3.78;;;;;;;;;;5049595;28;20140;-72
2021/04/15 11:12:24;;;;;;;10.77;4.63;;;;;;;;;;5048274;28;20090;-71
2021/04/15 11:14:49;;;;;;;9.55;3.60;;;;;;;;;;5049557;28;20493;-70
2021/04/15 11:17:19;;;;;;;9.57;3.33;;;;;;;;;;5048025;28;20040;-70
2021/04/15 11:19:45;;;;;;;10.10;3.42;;;;;;;;;;5049570;28;20124;-68
2021/04/15 11:22:18;;;;;;;7.40;3.53;;;;;;;;;;5048524;28;20539;-70
2021/04/15 11:24:45;;;;;;;8.25;3.42;;;;;;;;;;5048724;28;20055;-71
2021/04/15 11:27:11;;;;;;;7.63;3.20;;;;;;;;;;5058349;28;20040;-71
2021/04/15 11:29:37;;;;;;;5.38;3.10;;;;;;;;;;5029376;28;20489;-72
2021/04/15 11:32:25;;;;;;;8.50;3.83;;;;;;;;;;5028482;28;20041;-72
2021/04/15 11:35:02;;;;;;;8.95;4.25;;;;;;;;;;5029406;28;20787;-71
2021/04/15 11:37:28;;;;;;;10.52;4.22;;;;;;;;;;5029416;28;20072;-71
2021/04/15 11:40:13;;;;;;;10.23;4.60;;;;;;;;;;5030680;28;20041;-69
2021/04/15 11:42:39;;;;;;;8.30;3.83;;;;;;;;;;5028846;28;20047;-70
2021/04/15 11:45:05;;;;;;;7.88;3.65;;;;;;;;;;5029112;28;20068;-73
2021/04/15 11:47:34;;;;;;;7.10;3.50;;;;;;;;;;5044876;28;20037;-71
2021/04/15 11:50:06;;;;;;;6.25;3.80;;;;;;;;;;5029355;28;20059;-71
2021/04/15 11:52:35;;;;;;;6.90;4.05;;;;;;;;;;5037880;28;20443;-71
2021/04/15 11:55:02;;;;;;;8.95;4.07;;;;;;;;;;5066575;28;20037;-73
2021/04/15 11:57:31;;;;;;;9.18;3.80;;;;;;;;;;5066030;28;20123;-68
2021/04/15 11:59:57;;;;;;;6.90;3.55;;;;;;;;;;5065183;28;20048;-69
2021/04/15 12:02:34;;;;;;;7.32;4.05;;;;;;;;;;5063715;28;20055;-69
2021/04/15 12:05:16;;;;;;;9.57;3.65;;;;;;;;;;5045369;28;20113;-72
2021/04/15 12:07:44;;;;;;;7.35;3.88;;;;;;;;;;5028355;28;20040;-70
2021/04/15 12:10:11;;;;;;;11.05;3.90;;;;;;;;;;5029207;28;20041;-69
2021/04/15 12:12:40;;;;;;;10.43;4.03;;;;;;;;;;5032005;28;20033;-72
2021/04/15 12:15:09;;;;;;;6.97;3.50;;;;;;;;;;5033605;28;20390;-72
2021/04/15 12:17:41;;;;;;;8.23;4.68;;;;;;;;;;5032593;28;20036;-69
2021/04/15 12:20:11;;;;;;;6.43;3.63;;;;;;;;;;5032424;28;20047;-69
2021/04/15 12:22:52;;;;;;;5.35;3.05;;;;;;;;;;5031485;28;20056;-70
2021/04/15 12:25:22;;;;;;;8.18;2.92;;;;;;;;;;5051373;28;20222;-71
2021/04/15 12:27:49;;;;;;;10.73;3.60;;;;;;;;;;5069159;28;20048;-72
2021/04/15 12:30:22;;;;;;;5.65;3.15;;;;;;;;;;5068320;28;20036;-70
2021/04/15 12:33:01;;;;;;;7.32;3.25;;;;;;;;;;5067999;28;20119;-69
2021/04/15 12:35:43;;;;;;;5.95;2.80;;;;;;;;;;5068874;28;20049;-70
2021/04/15 12:38:10;;;;;;;10.30;3.30;;;;;;;;;;5049588;28;20049;-70
2021/04/15 12:40:36;;;;;;;;;;;;;;;;;;5050526;28;20137;-69
2021/04/15 12:43:13;;;;;;;5.95;3.10;;;;;;;;;;5031669;28;20039;-69
2021/04/15 12:45:48;;;;;;;4.22;2.85;;;;;;;;;;5031592;28;20402;-71
2021/04/15 12:48:20;;;;;;;6.50;3.15;;;;;;;;;;5031868;28;20114;-72
2021/04/15 12:50:49;;;;;;;5.97;3.35;;;;;;;;;;5032583;28;20134;-70
2021/04/15 12:53:15;;;;;;;7.55;3.55;;;;;;;;;;5045459;28;20099;-69
2021/04/15 12:55:42;;;;;;;7.45;3.92;;;;;;;;;;5068463;28;20028;-69
2021/04/15 12:58:08;;;;;;;7.30;4.03;;;;;;;;;;5067692;28;20688;-69
2021/04/15 13:00:36;;;;;;;8.00;3.83;;;;;;;;;;5067999;28;20036;-71
2021/04/15 13:03:13;;;;;;;6.22;3.42;;;;;;;;;;5069765;28;20037;-69
2021/04/15 13:05:40;;;;;;;7.20;3.47;;;;;;;;;;5031977;28;20432;-70
2021/04/15 13:08:24;;;;;;;5.63;3.28;;;;;;;;;;5032130;28;20045;-69
2021/04/15 13:10:51;;;;;;;7.28;3.50;;;;;;;;;;5033584;28;20037;-70
2021/04/15 13:13:35;;;;;;;6.22;3.88;;;;;;;;;;5031629;28;20501;-72
2021/04/15 13:16:03;;;;;;;7.13;4.25;;;;;;;;;;5031191;28;20033;-73
2021/04/15 13:18:37;;;;;;;7.40;3.97;;;;;;;;;;5031992;28;20051;-70
2021/04/15 13:21:08;;;;;;;5.68;3.25;;;;;;;;;;5049447;28;20083;-72
2021/04/15 13:23:37;;;;;;;8.85;3.08;;;;;;;;;;5035797;28;20037;-70
2021/04/15 13:26:03;;;;;;;10.15;3.85;;;;;;;;;;5059730;28;20037;-70
2021/04/15 13:28:41;;;;;;;9.93;3.50;;;;;;;;;;5031473;28;20106;-70
2021/04/15 13:31:09;;;;;;;9.73;3.55;;;;;;;;;;5030489;28;20037;-72
2021/04/15 13:33:55;;;;;;;7.90;3.75;;;;;;;;;;5030638;28;20634;-71
2021/04/15 13:36:23;;;;;;;11.57;3.80;;;;;;;;;;5030950;28;20045;-70
2021/04/15 13:38:59;;;;;;;8.73;3.67;;;;;;;;;;5031151;28;20106;-70
2021/04/15 13:41:28;;;;;;;7.25;3.70;;;;;;;;;;5027644;28;20052;-69
2021/04/15 13:44:10;;;;;;;9.60;4.13;;;;;;;;;;5030526;28;20078;-71
2021/04/15 13:46:36;;;;;;;8.48;4.05;;;;;;;;;;5030010;28;20068;-71
2021/04/15 13:49:12;;;;;;;5.93;3.17;;;;;;;;;;5031060;28;20128;-72
2021/04/15 13:54:14;;;;;;;6.20;3.60;;;;;;;;;;5062076;28;20052;-73
2021/04/15 13:57:00;;;;;;;5.90;3.60;;;;;;;;;;5055792;28;20056;-79
2021/04/15 13:59:27;;;;;;;;;;;;;;;;;;5046799;28;20094;-73
2021/04/15 14:01:54;;;;;;;10.25;4.32;;;;;;;;;;5042357;28;19992;-71
2021/04/15 14:04:39;;;;;;;7.30;3.30;;;;;;;;;;5049692;28;20123;-72
2021/04/15 14:07:21;;;;;;;8.55;3.53;;;;;;;;;;5051022;28;20041;-72
2021/04/15 14:09:47;;;;;;;5.57;3.22;;;;;;;;;;5050033;28;20497;-69
2021/04/15 14:12:32;;;;;;;11.40;4.28;;;;;;;;;;5049429;28;20032;-69
2021/04/15 14:14:58;;;;;;;6.10;2.92;;;;;;;;;;5067966;28;20508;-70
2021/04/15 14:17:24;;;;;;;;;;;;;;;;;;5049947;28;20615;-70
2021/04/15 14:19:51;;;;;;;;;;;;;;;;;;5051356;28;19916;-71
2021/04/15 14:22:22;;;;;;;5.93;3.13;;;;;;;;;;5049092;28;20023;-71
2021/04/15 14:24:52;;;;;;;6.50;3.20;;;;;;;;;;5050110;28;20040;-69
2021/04/15 14:27:20;;;;;;;6.20;3.38;;;;;;;;;;5049246;28;20389;-71
2021/04/15 14:29:48;;;;;;;8.10;3.13;;;;;;;;;;5068360;28;20067;-69
2021/04/15 14:32:25;;;;;;;4.60;2.63;;;;;;;;;;5050928;28;20067;-72
2021/04/15 14:34:56;;;;;;;4.65;2.55;;;;;;;;;;5051461;28;20041;-69
2021/04/15 14:37:24;;;;;;;4.85;2.58;;;;;;;;;;5051108;28;20036;-69
2021/04/15 14:39:55;;;;;;;7.05;3.42;;;;;;;;;;5052027;28;20515;-71